sensor_id;sensor_type;location;lat;lon;timestamp;temperature;humidity
71142;DHT22;58808;59.366;17.970;2023-09-18T00:02:01;9.60;99.90
71142;DHT22;58808;59.366;17.970;2023-09-18T00:04:27;9.60;99.90
71142;DHT22;58808;59.366;17.970;2023-09-18T00:06:53;9.60;99.90
71142;DHT22;58808;59.366;17.970;2023-09-18T00:09:19;9.70;99.90
71142;DHT22;58808;59.366;17.970;2023-09-18T00:11:44;9.80;99.90
71142;DHT22;58808;59.366;17.970;2023-09-18T00:14:10;9.90;99.90
71142;DHT22;58808;59.366;17.970;2023-09-18T00:16:36;10.00;99.90
71142;DHT22;58808;59.366;17.970;2023-09-18T00:19:02;10.00;99.90
71142;DHT22;58808;59.366;17.970;2023-09-18T00:21:28;10.10;99.90
71142;DHT22;58808;59.366;17.970;2023-09-18T00:23:56;10.10;99.90
71142;DHT22;58808;59.366;17.970;2023-09-18T00:26:24;10.20;99.90
71142;DHT22;58808;59.366;17.970;2023-09-18T00:28:50;10.20;99.90
71142;DHT22;58808;59.366;17.970;2023-09-18T00:31:15;10.10;99.90
71142;DHT22;58808;59.366;17.970;2023-09-18T00:33:41;10.00;99.90
71142;DHT22;58808;59.366;17.970;2023-09-18T00:36:07;10.00;99.90
71142;DHT22;58808;59.366;17.970;2023-09-18T00:38:32;9.90;99.90
71142;DHT22;58808;59.366;17.970;2023-09-18T00:40:58;9.90;99.90
71142;DHT22;58808;59.366;17.970;2023-09-18T00:43:24;9.80;99.90
71142;DHT22;58808;59.366;17.970;2023-09-18T00:45:49;9.80;99.90
71142;DHT22;58808;59.366;17.970;2023-09-18T00:48:16;9.80;99.90
71142;DHT22;58808;59.366;17.970;2023-09-18T00:50:50;9.80;99.90
71142;DHT22;58808;59.366;17.970;2023-09-18T00:53:20;9.70;99.90
71142;DHT22;58808;59.366;17.970;2023-09-18T00:55:47;9.70;99.90
71142;DHT22;58808;59.366;17.970;2023-09-18T00:58:14;9.60;99.90
71142;DHT22;58808;59.366;17.970;2023-09-18T01:00:41;9.50;99.90
71142;DHT22;58808;59.366;17.970;2023-09-18T01:03:06;9.40;99.90
71142;DHT22;58808;59.366;17.970;2023-09-18T01:05:32;9.30;99.90
71142;DHT22;58808;59.366;17.970;2023-09-18T01:07:58;9.30;99.90
71142;DHT22;58808;59.366;17.970;2023-09-18T01:10:31;9.30;99.90
71142;DHT22;58808;59.366;17.970;2023-09-18T01:13:11;9.30;99.90
71142;DHT22;58808;59.366;17.970;2023-09-18T01:15:49;9.20;99.90
71142;DHT22;58808;59.366;17.970;2023-09-18T01:18:17;9.30;99.90
71142;DHT22;58808;59.366;17.970;2023-09-18T01:20:44;9.40;99.90
71142;DHT22;58808;59.366;17.970;2023-09-18T01:23:10;9.40;99.90
71142;DHT22;58808;59.366;17.970;2023-09-18T01:25:37;9.40;99.90
71142;DHT22;58808;59.366;17.970;2023-09-18T01:28:03;9.30;99.90
71142;DHT22;58808;59.366;17.970;2023-09-18T01:30:29;9.30;99.90
71142;DHT22;58808;59.366;17.970;2023-09-18T01:32:57;9.30;99.90
71142;DHT22;58808;59.366;17.970;2023-09-18T01:35:25;9.20;99.90
71142;DHT22;58808;59.366;17.970;2023-09-18T01:37:59;9.20;99.90
71142;DHT22;58808;59.366;17.970;2023-09-18T01:40:25;9.10;99.90
71142;DHT22;58808;59.366;17.970;2023-09-18T01:42:52;9.20;99.90
71142;DHT22;58808;59.366;17.970;2023-09-18T01:45:18;9.20;99.90
71142;DHT22;58808;59.366;17.970;2023-09-18T01:47:45;9.20;99.90
71142;DHT22;58808;59.366;17.970;2023-09-18T01:50:10;9.30;99.90
71142;DHT22;58808;59.366;17.970;2023-09-18T01:52:36;9.30;99.90
71142;DHT22;58808;59.366;17.970;2023-09-18T01:55:02;9.30;99.90
71142;DHT22;58808;59.366;17.970;2023-09-18T01:57:31;9.40;99.90
71142;DHT22;58808;59.366;17.970;2023-09-18T01:59:57;9.30;99.90
71142;DHT22;58808;59.366;17.970;2023-09-18T02:02:22;9.10;99.90
71142;DHT22;58808;59.366;17.970;2023-09-18T02:04:49;9.10;99.90
71142;DHT22;58808;59.366;17.970;2023-09-18T02:07:15;9.00;99.90
71142;DHT22;58808;59.366;17.970;2023-09-18T02:09:40;8.90;99.90
71142;DHT22;58808;59.366;17.970;2023-09-18T02:12:06;8.90;99.90
71142;DHT22;58808;59.366;17.970;2023-09-18T02:14:32;9.00;99.90
71142;DHT22;58808;59.366;17.970;2023-09-18T02:16:59;9.00;99.90
71142;DHT22;58808;59.366;17.970;2023-09-18T02:19:25;9.00;99.90
71142;DHT22;58808;59.366;17.970;2023-09-18T02:21:51;8.90;99.90
71142;DHT22;58808;59.366;17.970;2023-09-18T02:24:17;8.80;99.90
71142;DHT22;58808;59.366;17.970;2023-09-18T02:26:43;8.70;99.90
71142;DHT22;58808;59.366;17.970;2023-09-18T02:29:09;8.70;99.90
71142;DHT22;58808;59.366;17.970;2023-09-18T02:31:39;8.60;99.90
71142;DHT22;58808;59.366;17.970;2023-09-18T02:34:05;8.60;99.90
71142;DHT22;58808;59.366;17.970;2023-09-18T02:36:32;8.60;99.90
71142;DHT22;58808;59.366;17.970;2023-09-18T02:38:58;8.70;99.90
71142;DHT22;58808;59.366;17.970;2023-09-18T02:41:24;8.80;99.90
71142;DHT22;58808;59.366;17.970;2023-09-18T02:43:49;8.80;99.90
71142;DHT22;58808;59.366;17.970;2023-09-18T02:46:15;8.80;99.90
71142;DHT22;58808;59.366;17.970;2023-09-18T02:48:41;8.90;99.90
71142;DHT22;58808;59.366;17.970;2023-09-18T02:51:07;9.10;99.90
71142;DHT22;58808;59.366;17.970;2023-09-18T02:53:33;9.10;99.90
71142;DHT22;58808;59.366;17.970;2023-09-18T02:55:59;9.10;99.90
71142;DHT22;58808;59.366;17.970;2023-09-18T02:58:25;9.10;99.90
71142;DHT22;58808;59.366;17.970;2023-09-18T03:00:52;9.10;99.90
71142;DHT22;58808;59.366;17.970;2023-09-18T03:03:19;9.10;99.90
71142;DHT22;58808;59.366;17.970;2023-09-18T03:05:45;9.10;99.90
71142;DHT22;58808;59.366;17.970;2023-09-18T03:08:12;9.20;99.90
71142;DHT22;58808;59.366;17.970;2023-09-18T03:10:42;9.20;99.90
71142;DHT22;58808;59.366;17.970;2023-09-18T03:13:09;9.10;99.90
71142;DHT22;58808;59.366;17.970;2023-09-18T03:15:35;9.10;99.90
71142;DHT22;58808;59.366;17.970;2023-09-18T03:18:02;9.00;99.90
71142;DHT22;58808;59.366;17.970;2023-09-18T03:20:28;8.90;99.90
71142;DHT22;58808;59.366;17.970;2023-09-18T03:22:58;8.80;99.90
71142;DHT22;58808;59.366;17.970;2023-09-18T03:25:25;8.90;99.90
71142;DHT22;58808;59.366;17.970;2023-09-18T03:27:53;8.90;99.90
71142;DHT22;58808;59.366;17.970;2023-09-18T03:30:20;9.00;99.90
71142;DHT22;58808;59.366;17.970;2023-09-18T03:32:45;9.00;99.90
71142;DHT22;58808;59.366;17.970;2023-09-18T03:35:11;9.10;99.90
71142;DHT22;58808;59.366;17.970;2023-09-18T03:38:02;9.00;99.90
71142;DHT22;58808;59.366;17.970;2023-09-18T03:40:29;9.00;99.90
71142;DHT22;58808;59.366;17.970;2023-09-18T03:42:54;9.00;99.90
71142;DHT22;58808;59.366;17.970;2023-09-18T03:45:20;9.00;99.90
71142;DHT22;58808;59.366;17.970;2023-09-18T03:47:46;9.00;99.90
71142;DHT22;58808;59.366;17.970;2023-09-18T03:50:12;9.10;99.90
71142;DHT22;58808;59.366;17.970;2023-09-18T03:52:38;9.10;99.90
71142;DHT22;58808;59.366;17.970;2023-09-18T03:55:06;9.10;99.90
71142;DHT22;58808;59.366;17.970;2023-09-18T03:57:31;9.10;99.90
71142;DHT22;58808;59.366;17.970;2023-09-18T03:59:57;9.10;99.90
71142;DHT22;58808;59.366;17.970;2023-09-18T04:02:25;9.10;99.90
71142;DHT22;58808;59.366;17.970;2023-09-18T04:04:51;9.10;99.90
71142;DHT22;58808;59.366;17.970;2023-09-18T04:07:17;9.10;99.90
71142;DHT22;58808;59.366;17.970;2023-09-18T04:09:45;9.10;99.90
71142;DHT22;58808;59.366;17.970;2023-09-18T04:12:10;9.10;99.90
71142;DHT22;58808;59.366;17.970;2023-09-18T04:14:36;9.20;99.90
71142;DHT22;58808;59.366;17.970;2023-09-18T04:17:02;9.10;99.90
71142;DHT22;58808;59.366;17.970;2023-09-18T04:19:28;9.10;99.90
71142;DHT22;58808;59.366;17.970;2023-09-18T04:21:54;9.10;99.90
71142;DHT22;58808;59.366;17.970;2023-09-18T04:24:20;9.10;99.90
71142;DHT22;58808;59.366;17.970;2023-09-18T04:26:46;9.10;99.90
71142;DHT22;58808;59.366;17.970;2023-09-18T04:29:12;9.00;99.90
71142;DHT22;58808;59.366;17.970;2023-09-18T04:31:37;9.00;99.90
71142;DHT22;58808;59.366;17.970;2023-09-18T04:34:06;9.00;99.90
71142;DHT22;58808;59.366;17.970;2023-09-18T04:36:32;9.10;99.90
71142;DHT22;58808;59.366;17.970;2023-09-18T04:38:57;9.10;99.90
71142;DHT22;58808;59.366;17.970;2023-09-18T04:41:23;9.10;99.90
71142;DHT22;58808;59.366;17.970;2023-09-18T04:43:49;9.10;99.90
71142;DHT22;58808;59.366;17.970;2023-09-18T04:46:16;9.10;99.90
71142;DHT22;58808;59.366;17.970;2023-09-18T04:48:42;9.00;99.90
71142;DHT22;58808;59.366;17.970;2023-09-18T04:51:07;9.00;99.90
71142;DHT22;58808;59.366;17.970;2023-09-18T04:53:33;9.00;99.90
71142;DHT22;58808;59.366;17.970;2023-09-18T04:55:59;9.00;99.90
71142;DHT22;58808;59.366;17.970;2023-09-18T04:58:26;8.90;99.90
71142;DHT22;58808;59.366;17.970;2023-09-18T05:00:59;8.90;99.90
71142;DHT22;58808;59.366;17.970;2023-09-18T05:03:25;8.90;99.90
71142;DHT22;58808;59.366;17.970;2023-09-18T05:05:52;8.90;99.90
71142;DHT22;58808;59.366;17.970;2023-09-18T05:08:18;8.90;99.90
71142;DHT22;58808;59.366;17.970;2023-09-18T05:10:44;9.00;99.90
71142;DHT22;58808;59.366;17.970;2023-09-18T05:13:11;9.00;99.90
71142;DHT22;58808;59.366;17.970;2023-09-18T05:15:37;9.10;99.90
71142;DHT22;58808;59.366;17.970;2023-09-18T05:18:03;9.10;99.90
71142;DHT22;58808;59.366;17.970;2023-09-18T05:20:30;9.20;99.90
71142;DHT22;58808;59.366;17.970;2023-09-18T05:22:57;9.20;99.90
71142;DHT22;58808;59.366;17.970;2023-09-18T05:25:25;9.20;99.90
71142;DHT22;58808;59.366;17.970;2023-09-18T05:27:52;9.30;99.90
71142;DHT22;58808;59.366;17.970;2023-09-18T05:30:24;9.30;99.90
71142;DHT22;58808;59.366;17.970;2023-09-18T05:32:53;9.30;99.90
71142;DHT22;58808;59.366;17.970;2023-09-18T05:35:19;9.30;99.90
71142;DHT22;58808;59.366;17.970;2023-09-18T05:37:45;9.30;99.90
71142;DHT22;58808;59.366;17.970;2023-09-18T05:40:11;9.30;99.90
71142;DHT22;58808;59.366;17.970;2023-09-18T05:42:38;9.40;99.90
71142;DHT22;58808;59.366;17.970;2023-09-18T05:45:05;9.40;99.90
71142;DHT22;58808;59.366;17.970;2023-09-18T05:47:34;9.40;99.90
71142;DHT22;58808;59.366;17.970;2023-09-18T05:50:02;9.50;99.90
71142;DHT22;58808;59.366;17.970;2023-09-18T05:52:30;9.50;99.90
71142;DHT22;58808;59.366;17.970;2023-09-18T05:54:55;9.50;99.90
71142;DHT22;58808;59.366;17.970;2023-09-18T05:57:21;9.60;99.90
71142;DHT22;58808;59.366;17.970;2023-09-18T05:59:49;9.70;99.90
71142;DHT22;58808;59.366;17.970;2023-09-18T06:02:15;9.70;99.90
71142;DHT22;58808;59.366;17.970;2023-09-18T06:04:42;9.80;99.90
71142;DHT22;58808;59.366;17.970;2023-09-18T06:07:08;9.80;99.90
71142;DHT22;58808;59.366;17.970;2023-09-18T06:09:34;9.90;99.90
71142;DHT22;58808;59.366;17.970;2023-09-18T06:12:00;9.90;99.90
71142;DHT22;58808;59.366;17.970;2023-09-18T06:14:25;9.90;99.90
71142;DHT22;58808;59.366;17.970;2023-09-18T06:16:51;10.00;99.90
71142;DHT22;58808;59.366;17.970;2023-09-18T06:19:17;10.10;99.90
71142;DHT22;58808;59.366;17.970;2023-09-18T06:21:43;10.20;99.90
71142;DHT22;58808;59.366;17.970;2023-09-18T06:24:10;10.30;99.90
71142;DHT22;58808;59.366;17.970;2023-09-18T06:26:35;10.30;99.90
71142;DHT22;58808;59.366;17.970;2023-09-18T06:29:01;10.40;99.90
71142;DHT22;58808;59.366;17.970;2023-09-18T06:31:28;10.50;99.90
71142;DHT22;58808;59.366;17.970;2023-09-18T06:33:54;10.60;99.90
71142;DHT22;58808;59.366;17.970;2023-09-18T06:36:19;10.70;99.90
71142;DHT22;58808;59.366;17.970;2023-09-18T06:38:46;10.70;99.90
71142;DHT22;58808;59.366;17.970;2023-09-18T06:41:11;10.80;99.90
71142;DHT22;58808;59.366;17.970;2023-09-18T06:43:37;10.90;99.90
71142;DHT22;58808;59.366;17.970;2023-09-18T06:46:03;10.90;99.90
71142;DHT22;58808;59.366;17.970;2023-09-18T06:48:29;11.00;99.90
71142;DHT22;58808;59.366;17.970;2023-09-18T06:50:58;11.10;99.90
71142;DHT22;58808;59.366;17.970;2023-09-18T06:53:28;11.10;99.90
71142;DHT22;58808;59.366;17.970;2023-09-18T06:55:54;11.20;99.90
71142;DHT22;58808;59.366;17.970;2023-09-18T06:58:20;11.30;99.90
71142;DHT22;58808;59.366;17.970;2023-09-18T07:00:46;11.30;99.90
71142;DHT22;58808;59.366;17.970;2023-09-18T07:03:12;11.40;99.90
71142;DHT22;58808;59.366;17.970;2023-09-18T07:05:40;11.50;99.90
71142;DHT22;58808;59.366;17.970;2023-09-18T07:08:06;11.50;99.90
71142;DHT22;58808;59.366;17.970;2023-09-18T07:10:35;11.60;99.90
71142;DHT22;58808;59.366;17.970;2023-09-18T07:13:01;11.60;99.90
71142;DHT22;58808;59.366;17.970;2023-09-18T07:15:26;11.70;99.90
71142;DHT22;58808;59.366;17.970;2023-09-18T07:17:52;11.80;99.90
71142;DHT22;58808;59.366;17.970;2023-09-18T07:20:18;11.90;99.90
71142;DHT22;58808;59.366;17.970;2023-09-18T07:22:47;12.00;99.90
71142;DHT22;58808;59.366;17.970;2023-09-18T07:25:16;12.10;99.90
71142;DHT22;58808;59.366;17.970;2023-09-18T07:27:42;12.30;99.90
71142;DHT22;58808;59.366;17.970;2023-09-18T07:30:12;12.30;99.90
71142;DHT22;58808;59.366;17.970;2023-09-18T07:32:40;12.50;99.90
71142;DHT22;58808;59.366;17.970;2023-09-18T07:35:09;12.60;99.90
71142;DHT22;58808;59.366;17.970;2023-09-18T07:37:36;12.80;99.90
71142;DHT22;58808;59.366;17.970;2023-09-18T07:40:06;12.90;99.90
71142;DHT22;58808;59.366;17.970;2023-09-18T07:42:32;12.90;99.90
71142;DHT22;58808;59.366;17.970;2023-09-18T07:44:58;13.10;99.90
71142;DHT22;58808;59.366;17.970;2023-09-18T07:47:24;13.10;99.90
71142;DHT22;58808;59.366;17.970;2023-09-18T07:49:52;13.20;99.90
71142;DHT22;58808;59.366;17.970;2023-09-18T07:52:20;13.30;99.90
71142;DHT22;58808;59.366;17.970;2023-09-18T07:54:45;13.30;99.90
71142;DHT22;58808;59.366;17.970;2023-09-18T07:57:11;13.40;99.90
71142;DHT22;58808;59.366;17.970;2023-09-18T07:59:37;13.50;99.90
71142;DHT22;58808;59.366;17.970;2023-09-18T08:02:04;13.60;99.90
71142;DHT22;58808;59.366;17.970;2023-09-18T08:04:33;13.60;99.90
71142;DHT22;58808;59.366;17.970;2023-09-18T08:06:59;13.70;99.90
71142;DHT22;58808;59.366;17.970;2023-09-18T08:09:26;13.90;99.90
71142;DHT22;58808;59.366;17.970;2023-09-18T08:11:54;14.00;99.90
71142;DHT22;58808;59.366;17.970;2023-09-18T08:14:21;14.20;99.90
71142;DHT22;58808;59.366;17.970;2023-09-18T08:16:47;14.20;99.90
71142;DHT22;58808;59.366;17.970;2023-09-18T08:19:16;14.30;99.90
71142;DHT22;58808;59.366;17.970;2023-09-18T08:21:45;14.30;99.90
71142;DHT22;58808;59.366;17.970;2023-09-18T08:24:11;14.40;99.90
71142;DHT22;58808;59.366;17.970;2023-09-18T08:26:37;14.50;99.90
71142;DHT22;58808;59.366;17.970;2023-09-18T08:29:06;14.60;99.90
71142;DHT22;58808;59.366;17.970;2023-09-18T08:31:32;14.80;99.90
71142;DHT22;58808;59.366;17.970;2023-09-18T08:33:57;14.80;99.90
71142;DHT22;58808;59.366;17.970;2023-09-18T08:36:24;14.90;99.90
71142;DHT22;58808;59.366;17.970;2023-09-18T08:38:50;14.80;99.90
71142;DHT22;58808;59.366;17.970;2023-09-18T08:41:18;14.80;99.90
71142;DHT22;58808;59.366;17.970;2023-09-18T08:43:46;14.70;99.90
71142;DHT22;58808;59.366;17.970;2023-09-18T08:46:14;14.70;99.90
71142;DHT22;58808;59.366;17.970;2023-09-18T08:48:40;14.70;99.90
71142;DHT22;58808;59.366;17.970;2023-09-18T08:51:06;14.80;99.90
71142;DHT22;58808;59.366;17.970;2023-09-18T08:53:34;14.70;99.90
71142;DHT22;58808;59.366;17.970;2023-09-18T08:56:00;14.70;99.90
71142;DHT22;58808;59.366;17.970;2023-09-18T08:58:34;14.70;99.90
71142;DHT22;58808;59.366;17.970;2023-09-18T09:01:03;14.70;99.90
71142;DHT22;58808;59.366;17.970;2023-09-18T09:03:30;14.80;99.90
71142;DHT22;58808;59.366;17.970;2023-09-18T09:05:56;14.80;99.90
71142;DHT22;58808;59.366;17.970;2023-09-18T09:08:22;14.70;99.90
71142;DHT22;58808;59.366;17.970;2023-09-18T09:10:48;14.80;99.90
71142;DHT22;58808;59.366;17.970;2023-09-18T09:13:14;15.20;99.90
71142;DHT22;58808;59.366;17.970;2023-09-18T09:15:45;15.30;99.90
71142;DHT22;58808;59.366;17.970;2023-09-18T09:18:12;15.60;99.90
71142;DHT22;58808;59.366;17.970;2023-09-18T09:20:40;15.70;99.90
71142;DHT22;58808;59.366;17.970;2023-09-18T09:23:09;15.70;99.90
71142;DHT22;58808;59.366;17.970;2023-09-18T09:25:35;15.80;99.90
71142;DHT22;58808;59.366;17.970;2023-09-18T09:28:05;15.80;99.90
71142;DHT22;58808;59.366;17.970;2023-09-18T09:30:33;15.90;99.90
71142;DHT22;58808;59.366;17.970;2023-09-18T09:32:59;15.90;99.90
71142;DHT22;58808;59.366;17.970;2023-09-18T09:35:29;16.10;99.90
71142;DHT22;58808;59.366;17.970;2023-09-18T09:38:00;16.30;99.90
71142;DHT22;58808;59.366;17.970;2023-09-18T09:40:27;16.40;99.90
71142;DHT22;58808;59.366;17.970;2023-09-18T09:42:54;16.30;99.90
71142;DHT22;58808;59.366;17.970;2023-09-18T09:45:30;16.30;99.90
71142;DHT22;58808;59.366;17.970;2023-09-18T09:48:00;16.30;99.90
71142;DHT22;58808;59.366;17.970;2023-09-18T09:50:26;16.30;99.90
71142;DHT22;58808;59.366;17.970;2023-09-18T09:52:53;16.40;99.90
71142;DHT22;58808;59.366;17.970;2023-09-18T09:55:28;16.50;99.90
71142;DHT22;58808;59.366;17.970;2023-09-18T09:58:01;16.60;99.90
71142;DHT22;58808;59.366;17.970;2023-09-18T10:00:36;16.60;99.90
71142;DHT22;58808;59.366;17.970;2023-09-18T10:03:09;16.70;99.90
71142;DHT22;58808;59.366;17.970;2023-09-18T10:05:38;16.90;99.90
71142;DHT22;58808;59.366;17.970;2023-09-18T10:08:11;17.10;99.90
71142;DHT22;58808;59.366;17.970;2023-09-18T10:10:52;17.10;99.90
71142;DHT22;58808;59.366;17.970;2023-09-18T10:13:25;17.20;99.90
71142;DHT22;58808;59.366;17.970;2023-09-18T10:15:53;17.40;99.90
71142;DHT22;58808;59.366;17.970;2023-09-18T10:19:17;17.60;99.90
71142;DHT22;58808;59.366;17.970;2023-09-18T10:21:52;17.70;99.90
71142;DHT22;58808;59.366;17.970;2023-09-18T10:24:24;17.70;99.90
71142;DHT22;58808;59.366;17.970;2023-09-18T10:26:59;17.70;99.90
71142;DHT22;58808;59.366;17.970;2023-09-18T10:29:26;17.70;99.90
71142;DHT22;58808;59.366;17.970;2023-09-18T10:31:53;17.70;99.90
71142;DHT22;58808;59.366;17.970;2023-09-18T10:34:20;17.70;99.90
71142;DHT22;58808;59.366;17.970;2023-09-18T10:36:51;17.60;99.30
71142;DHT22;58808;59.366;17.970;2023-09-18T10:39:19;17.50;99.20
71142;DHT22;58808;59.366;17.970;2023-09-18T10:41:52;17.30;99.10
71142;DHT22;58808;59.366;17.970;2023-09-18T10:44:18;17.30;99.60
71142;DHT22;58808;59.366;17.970;2023-09-18T10:46:46;17.30;99.90
71142;DHT22;58808;59.366;17.970;2023-09-18T10:49:12;17.40;99.30
71142;DHT22;58808;59.366;17.970;2023-09-18T10:51:38;17.50;99.40
71142;DHT22;58808;59.366;17.970;2023-09-18T10:54:09;17.50;98.60
71142;DHT22;58808;59.366;17.970;2023-09-18T10:56:35;17.30;99.20
71142;DHT22;58808;59.366;17.970;2023-09-18T10:59:02;17.10;99.80
71142;DHT22;58808;59.366;17.970;2023-09-18T11:01:30;17.10;99.90
71142;DHT22;58808;59.366;17.970;2023-09-18T11:04:07;17.30;99.80
71142;DHT22;58808;59.366;17.970;2023-09-18T11:09:23;17.50;99.90
71142;DHT22;58808;59.366;17.970;2023-09-18T11:11:53;17.30;99.10
71142;DHT22;58808;59.366;17.970;2023-09-18T11:14:22;17.20;99.10
71142;DHT22;58808;59.366;17.970;2023-09-18T11:16:51;17.00;98.90
71142;DHT22;58808;59.366;17.970;2023-09-18T11:19:17;17.10;98.80
71142;DHT22;58808;59.366;17.970;2023-09-18T11:21:45;17.40;98.50
71142;DHT22;58808;59.366;17.970;2023-09-18T11:24:21;17.60;98.50
71142;DHT22;58808;59.366;17.970;2023-09-18T11:26:49;17.70;97.80
71142;DHT22;58808;59.366;17.970;2023-09-18T11:29:17;17.70;98.00
71142;DHT22;58808;59.366;17.970;2023-09-18T11:31:48;17.60;99.10
71142;DHT22;58808;59.366;17.970;2023-09-18T11:34:23;17.40;99.10
71142;DHT22;58808;59.366;17.970;2023-09-18T11:36:50;17.40;99.20
71142;DHT22;58808;59.366;17.970;2023-09-18T11:42:21;17.30;99.40
71142;DHT22;58808;59.366;17.970;2023-09-18T11:44:49;17.20;99.50
71142;DHT22;58808;59.366;17.970;2023-09-18T11:47:17;17.10;99.90
71142;DHT22;58808;59.366;17.970;2023-09-18T11:50:02;17.00;99.90
71142;DHT22;58808;59.366;17.970;2023-09-18T11:52:30;16.80;99.90
71142;DHT22;58808;59.366;17.970;2023-09-18T11:54:59;16.80;99.90
71142;DHT22;58808;59.366;17.970;2023-09-18T11:57:25;16.90;99.90
71142;DHT22;58808;59.366;17.970;2023-09-18T11:59:52;16.90;99.90
71142;DHT22;58808;59.366;17.970;2023-09-18T12:02:31;16.90;99.90
71142;DHT22;58808;59.366;17.970;2023-09-18T12:05:19;16.80;99.90
71142;DHT22;58808;59.366;17.970;2023-09-18T12:07:46;16.80;99.90
71142;DHT22;58808;59.366;17.970;2023-09-18T12:10:14;17.10;99.90
71142;DHT22;58808;59.366;17.970;2023-09-18T12:12:42;17.30;99.90
71142;DHT22;58808;59.366;17.970;2023-09-18T12:15:11;17.50;99.90
71142;DHT22;58808;59.366;17.970;2023-09-18T12:17:37;17.70;99.90
71142;DHT22;58808;59.366;17.970;2023-09-18T12:20:03;17.70;99.90
71142;DHT22;58808;59.366;17.970;2023-09-18T12:22:31;17.60;99.90
71142;DHT22;58808;59.366;17.970;2023-09-18T12:25:12;17.40;99.90
71142;DHT22;58808;59.366;17.970;2023-09-18T12:27:42;17.20;99.90
71142;DHT22;58808;59.366;17.970;2023-09-18T12:30:09;17.30;99.90
71142;DHT22;58808;59.366;17.970;2023-09-18T12:32:39;17.40;99.90
71142;DHT22;58808;59.366;17.970;2023-09-18T12:35:07;17.50;99.90
71142;DHT22;58808;59.366;17.970;2023-09-18T12:37:34;17.40;99.90
71142;DHT22;58808;59.366;17.970;2023-09-18T12:40:00;17.20;99.90
71142;DHT22;58808;59.366;17.970;2023-09-18T12:42:27;17.30;99.90
71142;DHT22;58808;59.366;17.970;2023-09-18T12:44:54;17.50;99.90
71142;DHT22;58808;59.366;17.970;2023-09-18T12:47:20;17.50;99.90
71142;DHT22;58808;59.366;17.970;2023-09-18T12:49:45;17.40;99.90
71142;DHT22;58808;59.366;17.970;2023-09-18T12:52:12;17.50;99.90
71142;DHT22;58808;59.366;17.970;2023-09-18T12:54:40;17.70;99.90
71142;DHT22;58808;59.366;17.970;2023-09-18T12:57:05;17.80;99.80
71142;DHT22;58808;59.366;17.970;2023-09-18T12:59:36;17.90;99.90
71142;DHT22;58808;59.366;17.970;2023-09-18T13:02:04;17.80;99.60
71142;DHT22;58808;59.366;17.970;2023-09-18T13:04:32;17.70;99.90
71142;DHT22;58808;59.366;17.970;2023-09-18T13:07:07;17.60;99.90
71142;DHT22;58808;59.366;17.970;2023-09-18T13:09:33;17.40;99.90
71142;DHT22;58808;59.366;17.970;2023-09-18T13:12:00;17.40;99.90
71142;DHT22;58808;59.366;17.970;2023-09-18T13:14:26;17.20;99.90
71142;DHT22;58808;59.366;17.970;2023-09-18T13:16:52;17.10;99.90
71142;DHT22;58808;59.366;17.970;2023-09-18T13:19:18;17.00;99.90
71142;DHT22;58808;59.366;17.970;2023-09-18T13:21:51;16.90;99.90
71142;DHT22;58808;59.366;17.970;2023-09-18T13:24:30;16.90;99.90
71142;DHT22;58808;59.366;17.970;2023-09-18T13:26:57;16.90;99.90
71142;DHT22;58808;59.366;17.970;2023-09-18T13:29:24;16.80;99.90
71142;DHT22;58808;59.366;17.970;2023-09-18T13:31:52;16.70;99.90
71142;DHT22;58808;59.366;17.970;2023-09-18T13:34:18;16.60;99.90
71142;DHT22;58808;59.366;17.970;2023-09-18T13:36:45;16.70;99.90
71142;DHT22;58808;59.366;17.970;2023-09-18T13:39:12;16.70;99.90
71142;DHT22;58808;59.366;17.970;2023-09-18T13:41:41;16.80;99.90
71142;DHT22;58808;59.366;17.970;2023-09-18T13:44:07;16.80;99.90
71142;DHT22;58808;59.366;17.970;2023-09-18T13:46:33;16.90;99.90
71142;DHT22;58808;59.366;17.970;2023-09-18T13:49:03;16.90;99.90
71142;DHT22;58808;59.366;17.970;2023-09-18T13:51:32;17.00;99.90
71142;DHT22;58808;59.366;17.970;2023-09-18T13:53:58;17.00;99.90
71142;DHT22;58808;59.366;17.970;2023-09-18T13:56:24;17.10;99.90
71142;DHT22;58808;59.366;17.970;2023-09-18T13:58:54;17.20;99.90
71142;DHT22;58808;59.366;17.970;2023-09-18T14:01:23;17.20;99.90
71142;DHT22;58808;59.366;17.970;2023-09-18T14:03:51;17.10;99.90
71142;DHT22;58808;59.366;17.970;2023-09-18T14:06:16;16.90;99.90
71142;DHT22;58808;59.366;17.970;2023-09-18T14:08:42;16.80;99.90
71142;DHT22;58808;59.366;17.970;2023-09-18T14:11:08;16.70;99.90
71142;DHT22;58808;59.366;17.970;2023-09-18T14:13:34;16.60;99.90
71142;DHT22;58808;59.366;17.970;2023-09-18T14:15:59;16.60;99.90
71142;DHT22;58808;59.366;17.970;2023-09-18T14:18:29;16.50;99.90
71142;DHT22;58808;59.366;17.970;2023-09-18T14:20:54;16.50;99.90
71142;DHT22;58808;59.366;17.970;2023-09-18T14:23:20;16.50;99.90
71142;DHT22;58808;59.366;17.970;2023-09-18T14:25:46;16.40;99.90
71142;DHT22;58808;59.366;17.970;2023-09-18T14:28:12;16.40;99.90
71142;DHT22;58808;59.366;17.970;2023-09-18T14:30:39;16.30;99.90
71142;DHT22;58808;59.366;17.970;2023-09-18T14:33:04;16.30;99.90
71142;DHT22;58808;59.366;17.970;2023-09-18T14:35:30;16.20;99.90
71142;DHT22;58808;59.366;17.970;2023-09-18T14:37:56;16.20;99.90
71142;DHT22;58808;59.366;17.970;2023-09-18T14:40:21;16.20;99.90
71142;DHT22;58808;59.366;17.970;2023-09-18T14:42:47;16.20;99.90
71142;DHT22;58808;59.366;17.970;2023-09-18T14:45:13;16.10;99.90
71142;DHT22;58808;59.366;17.970;2023-09-18T14:47:39;16.10;99.90
71142;DHT22;58808;59.366;17.970;2023-09-18T14:50:05;16.10;99.90
71142;DHT22;58808;59.366;17.970;2023-09-18T14:52:31;16.10;99.90
71142;DHT22;58808;59.366;17.970;2023-09-18T14:54:58;16.10;99.90
71142;DHT22;58808;59.366;17.970;2023-09-18T14:57:25;16.00;99.90
71142;DHT22;58808;59.366;17.970;2023-09-18T14:59:52;15.90;99.90
71142;DHT22;58808;59.366;17.970;2023-09-18T15:02:18;15.90;99.90
71142;DHT22;58808;59.366;17.970;2023-09-18T15:04:44;15.80;99.90
71142;DHT22;58808;59.366;17.970;2023-09-18T15:07:10;15.70;99.90
71142;DHT22;58808;59.366;17.970;2023-09-18T15:09:37;15.70;99.90
71142;DHT22;58808;59.366;17.970;2023-09-18T15:12:04;15.70;99.90
71142;DHT22;58808;59.366;17.970;2023-09-18T15:14:33;15.80;99.90
71142;DHT22;58808;59.366;17.970;2023-09-18T15:16:59;15.70;99.90
71142;DHT22;58808;59.366;17.970;2023-09-18T15:19:25;15.70;99.90
71142;DHT22;58808;59.366;17.970;2023-09-18T15:21:51;15.70;99.90
71142;DHT22;58808;59.366;17.970;2023-09-18T15:24:18;15.70;99.90
71142;DHT22;58808;59.366;17.970;2023-09-18T15:26:44;15.70;99.90
71142;DHT22;58808;59.366;17.970;2023-09-18T15:29:09;15.70;99.90
71142;DHT22;58808;59.366;17.970;2023-09-18T15:31:36;15.70;99.90